The current weather 80 minutes ago in MELILLA, SPAIN

The current weather 80 minutes ago in MELILLA, SPAIN was mist.
GEML 050100Z AUTO 10003KT 070V150 2400 BR VV001 12/12 Q1025